sensor_id;sensor_type;location;lat;lon;timestamp;P1;durP1;ratioP1;P2;durP2;ratioP2
78555;SDS011;67851;51.354;7.744;2023-04-16T00:02:01;749.33;;;58.58;;
78555;SDS011;67851;51.354;7.744;2023-04-16T00:04:27;901.58;;;61.63;;
78555;SDS011;67851;51.354;7.744;2023-04-16T00:06:53;685.95;;;56.75;;
78555;SDS011;67851;51.354;7.744;2023-04-16T00:09:18;628.10;;;56.42;;
78555;SDS011;67851;51.354;7.744;2023-04-16T00:11:44;642.15;;;55.40;;
78555;SDS011;67851;51.354;7.744;2023-04-16T00:14:10;598.58;;;53.13;;
78555;SDS011;67851;51.354;7.744;2023-04-16T00:16:35;724.58;;;57.90;;
78555;SDS011;67851;51.354;7.744;2023-04-16T00:19:02;515.72;;;48.92;;
78555;SDS011;67851;51.354;7.744;2023-04-16T00:21:28;659.28;;;54.88;;
78555;SDS011;67851;51.354;7.744;2023-04-16T00:23:53;649.17;;;51.15;;
78555;SDS011;67851;51.354;7.744;2023-04-16T00:26:19;478.98;;;39.72;;
78555;SDS011;67851;51.354;7.744;2023-04-16T00:28:45;835.53;;;62.85;;
78555;SDS011;67851;51.354;7.744;2023-04-16T00:31:11;583.30;;;46.55;;
78555;SDS011;67851;51.354;7.744;2023-04-16T00:33:36;791.17;;;54.28;;
78555;SDS011;67851;51.354;7.744;2023-04-16T00:36:02;891.78;;;62.10;;
78555;SDS011;67851;51.354;7.744;2023-04-16T00:38:29;930.58;;;57.00;;
78555;SDS011;67851;51.354;7.744;2023-04-16T00:40:56;478.85;;;41.03;;
78555;SDS011;67851;51.354;7.744;2023-04-16T00:43:23;724.08;;;55.40;;
78555;SDS011;67851;51.354;7.744;2023-04-16T00:45:53;690.50;;;55.60;;
78555;SDS011;67851;51.354;7.744;2023-04-16T00:48:20;1014.03;;;68.05;;
78555;SDS011;67851;51.354;7.744;2023-04-16T00:50:47;907.75;;;64.88;;
78555;SDS011;67851;51.354;7.744;2023-04-16T00:53:13;627.78;;;53.05;;
78555;SDS011;67851;51.354;7.744;2023-04-16T00:55:39;741.88;;;54.97;;
78555;SDS011;67851;51.354;7.744;2023-04-16T00:58:05;843.42;;;64.82;;
78555;SDS011;67851;51.354;7.744;2023-04-16T01:00:30;704.35;;;57.85;;
78555;SDS011;67851;51.354;7.744;2023-04-16T01:02:56;524.72;;;43.63;;
78555;SDS011;67851;51.354;7.744;2023-04-16T01:05:24;1161.65;;;75.80;;
78555;SDS011;67851;51.354;7.744;2023-04-16T01:07:50;805.35;;;58.33;;
78555;SDS011;67851;51.354;7.744;2023-04-16T01:10:16;528.75;;;45.70;;
78555;SDS011;67851;51.354;7.744;2023-04-16T01:12:42;1001.40;;;69.03;;
78555;SDS011;67851;51.354;7.744;2023-04-16T01:15:07;653.70;;;53.80;;
78555;SDS011;67851;51.354;7.744;2023-04-16T01:17:33;658.50;;;58.83;;
78555;SDS011;67851;51.354;7.744;2023-04-16T01:19:59;1046.28;;;73.57;;
78555;SDS011;67851;51.354;7.744;2023-04-16T01:22:25;770.38;;;63.63;;
78555;SDS011;67851;51.354;7.744;2023-04-16T01:24:52;580.25;;;57.55;;
78555;SDS011;67851;51.354;7.744;2023-04-16T01:27:17;999.85;;;74.32;;
78555;SDS011;67851;51.354;7.744;2023-04-16T01:29:43;616.13;;;58.65;;
78555;SDS011;67851;51.354;7.744;2023-04-16T01:32:10;665.00;;;63.67;;
78555;SDS011;67851;51.354;7.744;2023-04-16T01:34:38;862.15;;;69.05;;
78555;SDS011;67851;51.354;7.744;2023-04-16T01:37:04;948.10;;;72.38;;
78555;SDS011;67851;51.354;7.744;2023-04-16T01:39:30;788.78;;;65.57;;
78555;SDS011;67851;51.354;7.744;2023-04-16T01:41:56;1003.63;;;71.63;;
78555;SDS011;67851;51.354;7.744;2023-04-16T01:44:22;1023.83;;;73.15;;
78555;SDS011;67851;51.354;7.744;2023-04-16T01:46:47;831.70;;;66.70;;
78555;SDS011;67851;51.354;7.744;2023-04-16T01:49:13;606.08;;;56.78;;
78555;SDS011;67851;51.354;7.744;2023-04-16T01:51:40;1290.90;;;78.28;;
78555;SDS011;67851;51.354;7.744;2023-04-16T01:54:06;1223.80;;;79.57;;
78555;SDS011;67851;51.354;7.744;2023-04-16T01:56:32;727.70;;;56.40;;
78555;SDS011;67851;51.354;7.744;2023-04-16T01:58:57;890.90;;;68.00;;
78555;SDS011;67851;51.354;7.744;2023-04-16T02:01:26;884.60;;;70.00;;
78555;SDS011;67851;51.354;7.744;2023-04-16T02:03:53;792.53;;;64.68;;
78555;SDS011;67851;51.354;7.744;2023-04-16T02:06:19;977.88;;;65.88;;
78555;SDS011;67851;51.354;7.744;2023-04-16T02:08:45;659.05;;;61.05;;
78555;SDS011;67851;51.354;7.744;2023-04-16T02:11:13;699.58;;;65.25;;
78555;SDS011;67851;51.354;7.744;2023-04-16T02:13:38;935.78;;;69.05;;
78555;SDS011;67851;51.354;7.744;2023-04-16T02:16:04;717.45;;;64.35;;
78555;SDS011;67851;51.354;7.744;2023-04-16T02:18:41;932.17;;;71.10;;
78555;SDS011;67851;51.354;7.744;2023-04-16T02:21:07;892.90;;;71.60;;
78555;SDS011;67851;51.354;7.744;2023-04-16T02:23:32;1322.38;;;83.75;;
78555;SDS011;67851;51.354;7.744;2023-04-16T02:25:59;1232.80;;;76.80;;
78555;SDS011;67851;51.354;7.744;2023-04-16T02:28:27;705.38;;;66.75;;
78555;SDS011;67851;51.354;7.744;2023-04-16T02:30:52;598.95;;;54.42;;
78555;SDS011;67851;51.354;7.744;2023-04-16T02:33:19;862.97;;;66.28;;
78555;SDS011;67851;51.354;7.744;2023-04-16T02:36:01;741.58;;;59.85;;
78555;SDS011;67851;51.354;7.744;2023-04-16T02:38:27;915.63;;;68.80;;
78555;SDS011;67851;51.354;7.744;2023-04-16T02:40:52;892.05;;;65.57;;
78555;SDS011;67851;51.354;7.744;2023-04-16T02:43:18;934.42;;;64.68;;
78555;SDS011;67851;51.354;7.744;2023-04-16T02:45:43;677.03;;;63.50;;
78555;SDS011;67851;51.354;7.744;2023-04-16T02:48:09;802.38;;;66.72;;
78555;SDS011;67851;51.354;7.744;2023-04-16T02:50:35;474.17;;;51.97;;
78555;SDS011;67851;51.354;7.744;2023-04-16T02:53:00;655.22;;;58.15;;
78555;SDS011;67851;51.354;7.744;2023-04-16T02:55:26;674.20;;;59.05;;
78555;SDS011;67851;51.354;7.744;2023-04-16T02:57:53;292.50;;;44.30;;
78555;SDS011;67851;51.354;7.744;2023-04-16T03:00:19;305.50;;;46.28;;
78555;SDS011;67851;51.354;7.744;2023-04-16T03:02:44;318.08;;;45.78;;
78555;SDS011;67851;51.354;7.744;2023-04-16T03:05:11;208.35;;;41.28;;
78555;SDS011;67851;51.354;7.744;2023-04-16T03:07:36;216.50;;;39.10;;
78555;SDS011;67851;51.354;7.744;2023-04-16T03:10:03;244.63;;;42.42;;
78555;SDS011;67851;51.354;7.744;2023-04-16T03:12:30;268.75;;;44.72;;
78555;SDS011;67851;51.354;7.744;2023-04-16T03:14:55;390.92;;;45.80;;
78555;SDS011;67851;51.354;7.744;2023-04-16T03:17:21;475.92;;;50.40;;
78555;SDS011;67851;51.354;7.744;2023-04-16T03:19:47;675.72;;;57.17;;
78555;SDS011;67851;51.354;7.744;2023-04-16T03:22:14;1093.53;;;72.55;;
78555;SDS011;67851;51.354;7.744;2023-04-16T03:24:40;851.33;;;61.65;;
78555;SDS011;67851;51.354;7.744;2023-04-16T03:27:06;507.48;;;46.30;;
78555;SDS011;67851;51.354;7.744;2023-04-16T03:29:32;918.65;;;63.00;;
78555;SDS011;67851;51.354;7.744;2023-04-16T03:31:57;995.05;;;68.03;;
78555;SDS011;67851;51.354;7.744;2023-04-16T03:34:24;975.92;;;65.38;;
78555;SDS011;67851;51.354;7.744;2023-04-16T03:36:50;1090.68;;;76.32;;
78555;SDS011;67851;51.354;7.744;2023-04-16T03:39:15;759.47;;;66.15;;
78555;SDS011;67851;51.354;7.744;2023-04-16T03:41:41;832.55;;;69.38;;
78555;SDS011;67851;51.354;7.744;2023-04-16T03:44:07;576.05;;;53.15;;
78555;SDS011;67851;51.354;7.744;2023-04-16T03:46:33;1288.22;;;90.07;;
78555;SDS011;67851;51.354;7.744;2023-04-16T03:48:58;794.97;;;69.28;;
78555;SDS011;67851;51.354;7.744;2023-04-16T03:51:24;775.88;;;65.28;;
78555;SDS011;67851;51.354;7.744;2023-04-16T03:53:50;1099.63;;;80.32;;
78555;SDS011;67851;51.354;7.744;2023-04-16T03:56:17;1577.55;;;100.03;;
78555;SDS011;67851;51.354;7.744;2023-04-16T03:58:42;833.40;;;68.90;;
78555;SDS011;67851;51.354;7.744;2023-04-16T04:01:08;665.90;;;53.60;;
78555;SDS011;67851;51.354;7.744;2023-04-16T04:03:35;1244.47;;;89.75;;
78555;SDS011;67851;51.354;7.744;2023-04-16T04:06:05;1441.15;;;95.40;;
78555;SDS011;67851;51.354;7.744;2023-04-16T04:08:31;813.13;;;71.65;;
78555;SDS011;67851;51.354;7.744;2023-04-16T04:10:57;1410.85;;;102.97;;
78555;SDS011;67851;51.354;7.744;2023-04-16T04:13:23;1730.50;;;112.43;;
78555;SDS011;67851;51.354;7.744;2023-04-16T04:15:50;1097.22;;;96.43;;
78555;SDS011;67851;51.354;7.744;2023-04-16T04:18:16;965.67;;;86.78;;
78555;SDS011;67851;51.354;7.744;2023-04-16T04:20:43;1138.35;;;93.85;;
78555;SDS011;67851;51.354;7.744;2023-04-16T04:23:11;1127.93;;;102.05;;
78555;SDS011;67851;51.354;7.744;2023-04-16T04:25:36;1120.53;;;103.78;;
78555;SDS011;67851;51.354;7.744;2023-04-16T04:28:02;848.45;;;94.75;;
78555;SDS011;67851;51.354;7.744;2023-04-16T04:30:28;1089.65;;;103.72;;
78555;SDS011;67851;51.354;7.744;2023-04-16T04:32:53;1203.60;;;109.15;;
78555;SDS011;67851;51.354;7.744;2023-04-16T04:35:20;847.03;;;96.28;;
78555;SDS011;67851;51.354;7.744;2023-04-16T04:37:46;1221.07;;;110.97;;
78555;SDS011;67851;51.354;7.744;2023-04-16T04:40:16;669.83;;;80.20;;
78555;SDS011;67851;51.354;7.744;2023-04-16T04:42:42;837.95;;;96.72;;
78555;SDS011;67851;51.354;7.744;2023-04-16T04:45:08;888.05;;;100.03;;
78555;SDS011;67851;51.354;7.744;2023-04-16T04:47:37;676.72;;;73.93;;
78555;SDS011;67851;51.354;7.744;2023-04-16T04:50:02;792.83;;;80.45;;
78555;SDS011;67851;51.354;7.744;2023-04-16T04:52:33;872.38;;;92.18;;
78555;SDS011;67851;51.354;7.744;2023-04-16T04:55:02;696.83;;;69.65;;
78555;SDS011;67851;51.354;7.744;2023-04-16T04:57:31;1104.68;;;96.60;;
78555;SDS011;67851;51.354;7.744;2023-04-16T04:59:57;985.13;;;97.55;;
78555;SDS011;67851;51.354;7.744;2023-04-16T05:02:30;813.25;;;90.70;;
78555;SDS011;67851;51.354;7.744;2023-04-16T05:04:58;756.13;;;81.25;;
78555;SDS011;67851;51.354;7.744;2023-04-16T05:07:26;1009.25;;;96.63;;
78555;SDS011;67851;51.354;7.744;2023-04-16T05:09:54;1449.70;;;115.75;;
78555;SDS011;67851;51.354;7.744;2023-04-16T05:12:20;806.67;;;79.43;;
78555;SDS011;67851;51.354;7.744;2023-04-16T05:14:46;1077.55;;;95.95;;
78555;SDS011;67851;51.354;7.744;2023-04-16T05:17:11;1091.45;;;97.47;;
78555;SDS011;67851;51.354;7.744;2023-04-16T05:19:40;1168.90;;;98.97;;
78555;SDS011;67851;51.354;7.744;2023-04-16T05:22:06;857.67;;;76.45;;
78555;SDS011;67851;51.354;7.744;2023-04-16T05:24:32;998.30;;;90.03;;
78555;SDS011;67851;51.354;7.744;2023-04-16T05:26:58;969.60;;;91.00;;
78555;SDS011;67851;51.354;7.744;2023-04-16T05:29:23;942.00;;;90.63;;
78555;SDS011;67851;51.354;7.744;2023-04-16T05:31:49;1311.65;;;107.28;;
78555;SDS011;67851;51.354;7.744;2023-04-16T05:34:14;825.25;;;80.28;;
78555;SDS011;67851;51.354;7.744;2023-04-16T05:36:40;1224.78;;;107.55;;
78555;SDS011;67851;51.354;7.744;2023-04-16T05:39:05;1349.38;;;107.00;;
78555;SDS011;67851;51.354;7.744;2023-04-16T05:41:34;1105.18;;;104.50;;
78555;SDS011;67851;51.354;7.744;2023-04-16T05:44:00;1487.68;;;119.65;;
78555;SDS011;67851;51.354;7.744;2023-04-16T05:46:25;744.55;;;78.40;;
78555;SDS011;67851;51.354;7.744;2023-04-16T05:48:51;800.08;;;93.78;;
78555;SDS011;67851;51.354;7.744;2023-04-16T05:51:16;1440.15;;;126.60;;
78555;SDS011;67851;51.354;7.744;2023-04-16T05:53:42;1360.30;;;123.78;;
78555;SDS011;67851;51.354;7.744;2023-04-16T05:56:07;1123.22;;;116.00;;
78555;SDS011;67851;51.354;7.744;2023-04-16T05:58:33;1505.57;;;136.07;;
78555;SDS011;67851;51.354;7.744;2023-04-16T06:00:59;1040.00;;;107.65;;
78555;SDS011;67851;51.354;7.744;2023-04-16T06:03:25;1452.10;;;139.35;;
78555;SDS011;67851;51.354;7.744;2023-04-16T06:05:51;1453.13;;;138.65;;
78555;SDS011;67851;51.354;7.744;2023-04-16T06:08:17;1222.55;;;119.63;;
78555;SDS011;67851;51.354;7.744;2023-04-16T06:10:44;1431.55;;;138.18;;
78555;SDS011;67851;51.354;7.744;2023-04-16T06:13:10;925.25;;;99.35;;
78555;SDS011;67851;51.354;7.744;2023-04-16T06:15:36;1108.10;;;124.53;;
78555;SDS011;67851;51.354;7.744;2023-04-16T06:18:01;1111.35;;;123.85;;
78555;SDS011;67851;51.354;7.744;2023-04-16T06:20:27;1596.45;;;141.38;;
78555;SDS011;67851;51.354;7.744;2023-04-16T06:22:52;1514.95;;;147.07;;
78555;SDS011;67851;51.354;7.744;2023-04-16T06:25:18;1596.93;;;147.93;;
78555;SDS011;67851;51.354;7.744;2023-04-16T06:27:44;1068.18;;;128.35;;
78555;SDS011;67851;51.354;7.744;2023-04-16T06:30:12;846.10;;;122.45;;
78555;SDS011;67851;51.354;7.744;2023-04-16T06:32:39;886.47;;;127.03;;
78555;SDS011;67851;51.354;7.744;2023-04-16T06:35:05;846.80;;;131.88;;
78555;SDS011;67851;51.354;7.744;2023-04-16T06:37:31;839.63;;;125.85;;
78555;SDS011;67851;51.354;7.744;2023-04-16T06:39:56;766.10;;;120.78;;
78555;SDS011;67851;51.354;7.744;2023-04-16T06:42:22;861.85;;;127.25;;
78555;SDS011;67851;51.354;7.744;2023-04-16T06:44:47;539.17;;;113.60;;
78555;SDS011;67851;51.354;7.744;2023-04-16T06:47:13;750.65;;;121.18;;
78555;SDS011;67851;51.354;7.744;2023-04-16T06:49:39;1062.53;;;142.23;;
78555;SDS011;67851;51.354;7.744;2023-04-16T06:52:04;580.05;;;114.65;;
78555;SDS011;67851;51.354;7.744;2023-04-16T06:54:30;774.45;;;125.53;;
78555;SDS011;67851;51.354;7.744;2023-04-16T06:56:55;846.15;;;129.10;;
78555;SDS011;67851;51.354;7.744;2023-04-16T06:59:21;622.00;;;112.97;;
78555;SDS011;67851;51.354;7.744;2023-04-16T07:01:46;527.47;;;115.30;;
78555;SDS011;67851;51.354;7.744;2023-04-16T07:04:12;476.33;;;103.10;;
78555;SDS011;67851;51.354;7.744;2023-04-16T07:06:38;448.08;;;102.78;;
78555;SDS011;67851;51.354;7.744;2023-04-16T07:09:03;585.33;;;115.45;;
78555;SDS011;67851;51.354;7.744;2023-04-16T07:11:29;442.65;;;96.55;;
78555;SDS011;67851;51.354;7.744;2023-04-16T07:13:54;563.90;;;116.30;;
78555;SDS011;67851;51.354;7.744;2023-04-16T07:16:22;461.65;;;101.13;;
78555;SDS011;67851;51.354;7.744;2023-04-16T07:18:47;445.95;;;100.38;;
78555;SDS011;67851;51.354;7.744;2023-04-16T07:21:13;435.40;;;99.18;;
78555;SDS011;67851;51.354;7.744;2023-04-16T07:23:39;402.48;;;91.57;;
78555;SDS011;67851;51.354;7.744;2023-04-16T07:26:04;455.90;;;105.75;;
78555;SDS011;67851;51.354;7.744;2023-04-16T07:28:30;504.05;;;109.95;;
78555;SDS011;67851;51.354;7.744;2023-04-16T07:30:55;433.80;;;91.43;;
78555;SDS011;67851;51.354;7.744;2023-04-16T07:33:21;435.92;;;104.90;;
78555;SDS011;67851;51.354;7.744;2023-04-16T07:35:47;415.08;;;91.50;;
78555;SDS011;67851;51.354;7.744;2023-04-16T07:38:12;450.35;;;103.00;;
78555;SDS011;67851;51.354;7.744;2023-04-16T07:40:38;421.92;;;98.45;;
78555;SDS011;67851;51.354;7.744;2023-04-16T07:43:04;416.95;;;93.80;;
78555;SDS011;67851;51.354;7.744;2023-04-16T07:45:29;462.88;;;104.07;;
78555;SDS011;67851;51.354;7.744;2023-04-16T07:47:55;450.67;;;105.93;;
78555;SDS011;67851;51.354;7.744;2023-04-16T07:50:20;393.25;;;92.78;;
78555;SDS011;67851;51.354;7.744;2023-04-16T07:52:46;427.13;;;98.03;;
78555;SDS011;67851;51.354;7.744;2023-04-16T07:55:12;465.20;;;104.57;;
78555;SDS011;67851;51.354;7.744;2023-04-16T07:57:37;458.27;;;101.40;;
78555;SDS011;67851;51.354;7.744;2023-04-16T08:00:03;481.50;;;101.03;;
78555;SDS011;67851;51.354;7.744;2023-04-16T08:02:38;522.97;;;109.38;;
78555;SDS011;67851;51.354;7.744;2023-04-16T08:05:03;643.15;;;121.50;;
78555;SDS011;67851;51.354;7.744;2023-04-16T08:07:30;502.80;;;106.75;;
78555;SDS011;67851;51.354;7.744;2023-04-16T08:09:55;478.17;;;98.63;;
78555;SDS011;67851;51.354;7.744;2023-04-16T08:12:21;372.92;;;86.65;;
78555;SDS011;67851;51.354;7.744;2023-04-16T08:14:47;536.40;;;115.32;;
78555;SDS011;67851;51.354;7.744;2023-04-16T08:17:15;567.72;;;118.88;;
78555;SDS011;67851;51.354;7.744;2023-04-16T08:19:46;567.58;;;116.65;;
78555;SDS011;67851;51.354;7.744;2023-04-16T08:22:12;479.50;;;108.50;;
78555;SDS011;67851;51.354;7.744;2023-04-16T08:24:38;397.63;;;91.43;;
78555;SDS011;67851;51.354;7.744;2023-04-16T08:27:04;456.27;;;98.22;;
78555;SDS011;67851;51.354;7.744;2023-04-16T08:29:31;384.90;;;84.28;;
78555;SDS011;67851;51.354;7.744;2023-04-16T08:31:57;495.27;;;113.05;;
78555;SDS011;67851;51.354;7.744;2023-04-16T08:34:24;558.53;;;117.88;;
78555;SDS011;67851;51.354;7.744;2023-04-16T08:36:50;447.92;;;106.65;;
78555;SDS011;67851;51.354;7.744;2023-04-16T08:39:16;460.98;;;100.93;;
78555;SDS011;67851;51.354;7.744;2023-04-16T08:41:42;459.95;;;110.35;;
78555;SDS011;67851;51.354;7.744;2023-04-16T08:44:21;518.63;;;114.68;;
78555;SDS011;67851;51.354;7.744;2023-04-16T08:46:53;517.55;;;117.22;;
78555;SDS011;67851;51.354;7.744;2023-04-16T08:49:25;524.95;;;113.38;;
78555;SDS011;67851;51.354;7.744;2023-04-16T08:51:55;573.75;;;118.72;;
78555;SDS011;67851;51.354;7.744;2023-04-16T08:54:36;550.15;;;119.43;;
78555;SDS011;67851;51.354;7.744;2023-04-16T08:57:05;464.85;;;101.22;;
78555;SDS011;67851;51.354;7.744;2023-04-16T08:59:31;519.22;;;125.93;;
78555;SDS011;67851;51.354;7.744;2023-04-16T09:01:57;476.30;;;115.47;;
78555;SDS011;67851;51.354;7.744;2023-04-16T09:04:27;477.00;;;124.15;;
78555;SDS011;67851;51.354;7.744;2023-04-16T09:06:57;421.33;;;102.22;;
78555;SDS011;67851;51.354;7.744;2023-04-16T09:09:24;465.88;;;114.15;;
78555;SDS011;67851;51.354;7.744;2023-04-16T09:11:51;440.50;;;110.47;;
78555;SDS011;67851;51.354;7.744;2023-04-16T09:14:18;428.00;;;107.88;;
78555;SDS011;67851;51.354;7.744;2023-04-16T09:16:45;384.63;;;99.55;;
78555;SDS011;67851;51.354;7.744;2023-04-16T09:19:14;399.52;;;104.00;;
78555;SDS011;67851;51.354;7.744;2023-04-16T09:21:40;403.20;;;105.85;;
78555;SDS011;67851;51.354;7.744;2023-04-16T09:24:08;396.92;;;105.03;;
78555;SDS011;67851;51.354;7.744;2023-04-16T09:26:34;420.05;;;108.90;;
78555;SDS011;67851;51.354;7.744;2023-04-16T09:29:00;426.23;;;111.60;;
78555;SDS011;67851;51.354;7.744;2023-04-16T09:31:26;426.42;;;108.32;;
78555;SDS011;67851;51.354;7.744;2023-04-16T09:34:02;326.92;;;97.00;;
78555;SDS011;67851;51.354;7.744;2023-04-16T09:36:32;269.30;;;82.65;;
78555;SDS011;67851;51.354;7.744;2023-04-16T09:39:00;292.75;;;91.05;;
78555;SDS011;67851;51.354;7.744;2023-04-16T09:41:27;262.30;;;84.43;;
78555;SDS011;67851;51.354;7.744;2023-04-16T09:43:58;264.92;;;86.22;;
78555;SDS011;67851;51.354;7.744;2023-04-16T09:46:34;242.85;;;74.63;;
78555;SDS011;67851;51.354;7.744;2023-04-16T09:49:08;217.90;;;76.53;;
78555;SDS011;67851;51.354;7.744;2023-04-16T09:51:41;214.95;;;72.55;;
78555;SDS011;67851;51.354;7.744;2023-04-16T09:54:08;253.20;;;79.88;;
78555;SDS011;67851;51.354;7.744;2023-04-16T09:56:44;207.48;;;58.10;;
78555;SDS011;67851;51.354;7.744;2023-04-16T09:59:16;168.35;;;57.70;;
78555;SDS011;67851;51.354;7.744;2023-04-16T10:01:42;257.58;;;82.63;;
78555;SDS011;67851;51.354;7.744;2023-04-16T10:04:10;224.63;;;73.78;;
78555;SDS011;67851;51.354;7.744;2023-04-16T10:06:36;261.88;;;80.72;;
78555;SDS011;67851;51.354;7.744;2023-04-16T10:09:02;226.63;;;72.18;;
78555;SDS011;67851;51.354;7.744;2023-04-16T10:11:31;242.45;;;77.30;;
78555;SDS011;67851;51.354;7.744;2023-04-16T10:13:57;217.98;;;69.10;;
78555;SDS011;67851;51.354;7.744;2023-04-16T10:16:23;225.90;;;78.25;;
78555;SDS011;67851;51.354;7.744;2023-04-16T10:18:49;235.85;;;78.70;;
78555;SDS011;67851;51.354;7.744;2023-04-16T10:21:15;267.65;;;83.63;;
78555;SDS011;67851;51.354;7.744;2023-04-16T10:23:41;202.75;;;69.78;;
78555;SDS011;67851;51.354;7.744;2023-04-16T10:26:08;208.93;;;75.80;;
78555;SDS011;67851;51.354;7.744;2023-04-16T10:28:34;184.77;;;63.50;;
78555;SDS011;67851;51.354;7.744;2023-04-16T10:31:01;185.48;;;73.30;;
78555;SDS011;67851;51.354;7.744;2023-04-16T10:33:29;148.25;;;64.03;;
78555;SDS011;67851;51.354;7.744;2023-04-16T10:36:09;154.68;;;65.95;;
78555;SDS011;67851;51.354;7.744;2023-04-16T10:38:37;143.38;;;56.90;;
78555;SDS011;67851;51.354;7.744;2023-04-16T10:41:10;190.07;;;70.10;;
78555;SDS011;67851;51.354;7.744;2023-04-16T10:43:39;116.22;;;50.03;;
78555;SDS011;67851;51.354;7.744;2023-04-16T10:46:22;173.70;;;68.10;;
78555;SDS011;67851;51.354;7.744;2023-04-16T10:48:54;145.77;;;61.45;;
78555;SDS011;67851;51.354;7.744;2023-04-16T10:56:39;130.82;;;59.55;;
78555;SDS011;67851;51.354;7.744;2023-04-16T10:59:05;124.45;;;55.22;;
78555;SDS011;67851;51.354;7.744;2023-04-16T11:01:35;108.00;;;52.92;;
78555;SDS011;67851;51.354;7.744;2023-04-16T11:04:44;104.57;;;51.38;;
78555;SDS011;67851;51.354;7.744;2023-04-16T11:12:15;93.57;;;49.67;;
78555;SDS011;67851;51.354;7.744;2023-04-16T11:17:45;94.78;;;50.95;;
78555;SDS011;67851;51.354;7.744;2023-04-16T11:20:23;76.97;;;44.58;;
78555;SDS011;67851;51.354;7.744;2023-04-16T11:22:51;71.07;;;42.60;;
78555;SDS011;67851;51.354;7.744;2023-04-16T11:25:27;79.85;;;44.55;;
78555;SDS011;67851;51.354;7.744;2023-04-16T11:27:54;91.47;;;46.92;;
78555;SDS011;67851;51.354;7.744;2023-04-16T11:32:58;55.03;;;35.63;;
78555;SDS011;67851;51.354;7.744;2023-04-16T11:35:29;63.97;;;38.35;;
78555;SDS011;67851;51.354;7.744;2023-04-16T11:37:56;69.95;;;40.83;;
78555;SDS011;67851;51.354;7.744;2023-04-16T11:40:22;59.47;;;37.53;;
78555;SDS011;67851;51.354;7.744;2023-04-16T11:42:47;49.70;;;33.40;;
78555;SDS011;67851;51.354;7.744;2023-04-16T11:45:13;53.47;;;33.05;;
78555;SDS011;67851;51.354;7.744;2023-04-16T11:47:46;53.33;;;33.45;;
78555;SDS011;67851;51.354;7.744;2023-04-16T11:50:32;45.45;;;30.42;;
78555;SDS011;67851;51.354;7.744;2023-04-16T11:53:02;46.45;;;31.20;;
78555;SDS011;67851;51.354;7.744;2023-04-16T11:55:28;49.92;;;31.17;;
78555;SDS011;67851;51.354;7.744;2023-04-16T11:57:54;47.80;;;32.08;;
78555;SDS011;67851;51.354;7.744;2023-04-16T12:00:19;49.78;;;34.38;;
78555;SDS011;67851;51.354;7.744;2023-04-16T12:02:51;47.75;;;32.25;;
78555;SDS011;67851;51.354;7.744;2023-04-16T12:05:31;55.88;;;34.90;;
78555;SDS011;67851;51.354;7.744;2023-04-16T12:08:03;56.72;;;33.17;;
78555;SDS011;67851;51.354;7.744;2023-04-16T12:10:31;47.38;;;34.40;;
78555;SDS011;67851;51.354;7.744;2023-04-16T12:13:12;48.63;;;33.08;;
78555;SDS011;67851;51.354;7.744;2023-04-16T12:15:42;52.22;;;34.10;;
78555;SDS011;67851;51.354;7.744;2023-04-16T12:18:19;44.97;;;30.08;;
78555;SDS011;67851;51.354;7.744;2023-04-16T12:20:46;50.25;;;32.35;;
78555;SDS011;67851;51.354;7.744;2023-04-16T12:23:25;49.10;;;33.45;;
78555;SDS011;67851;51.354;7.744;2023-04-16T12:25:56;45.67;;;33.00;;
78555;SDS011;67851;51.354;7.744;2023-04-16T12:28:35;46.63;;;32.55;;
78555;SDS011;67851;51.354;7.744;2023-04-16T12:31:02;51.60;;;34.10;;
78555;SDS011;67851;51.354;7.744;2023-04-16T12:33:29;52.53;;;32.92;;
78555;SDS011;67851;51.354;7.744;2023-04-16T12:35:55;59.13;;;37.22;;
78555;SDS011;67851;51.354;7.744;2023-04-16T12:38:21;64.43;;;38.75;;
78555;SDS011;67851;51.354;7.744;2023-04-16T12:40:46;46.17;;;32.70;;
78555;SDS011;67851;51.354;7.744;2023-04-16T12:43:12;49.08;;;30.60;;
78555;SDS011;67851;51.354;7.744;2023-04-16T12:45:38;52.92;;;35.08;;
78555;SDS011;67851;51.354;7.744;2023-04-16T12:48:04;55.28;;;36.22;;
78555;SDS011;67851;51.354;7.744;2023-04-16T12:50:30;52.13;;;35.75;;
78555;SDS011;67851;51.354;7.744;2023-04-16T12:52:56;52.10;;;35.45;;
78555;SDS011;67851;51.354;7.744;2023-04-16T12:55:22;57.10;;;35.00;;
78555;SDS011;67851;51.354;7.744;2023-04-16T12:57:49;54.22;;;35.17;;
78555;SDS011;67851;51.354;7.744;2023-04-16T13:00:16;50.35;;;33.65;;
78555;SDS011;67851;51.354;7.744;2023-04-16T13:02:43;50.35;;;34.92;;
78555;SDS011;67851;51.354;7.744;2023-04-16T13:05:08;46.47;;;32.45;;
78555;SDS011;67851;51.354;7.744;2023-04-16T13:07:34;49.70;;;33.72;;
78555;SDS011;67851;51.354;7.744;2023-04-16T13:09:59;50.92;;;33.60;;
78555;SDS011;67851;51.354;7.744;2023-04-16T13:12:25;55.63;;;38.53;;
78555;SDS011;67851;51.354;7.744;2023-04-16T13:14:52;49.42;;;34.55;;
78555;SDS011;67851;51.354;7.744;2023-04-16T13:17:18;47.00;;;32.47;;
78555;SDS011;67851;51.354;7.744;2023-04-16T13:19:43;42.47;;;26.73;;
78555;SDS011;67851;51.354;7.744;2023-04-16T13:22:09;52.80;;;36.83;;
78555;SDS011;67851;51.354;7.744;2023-04-16T13:24:35;46.58;;;32.45;;
78555;SDS011;67851;51.354;7.744;2023-04-16T13:27:01;54.20;;;37.40;;
78555;SDS011;67851;51.354;7.744;2023-04-16T13:29:27;45.75;;;32.47;;
78555;SDS011;67851;51.354;7.744;2023-04-16T13:31:54;46.60;;;31.83;;
78555;SDS011;67851;51.354;7.744;2023-04-16T13:34:19;44.45;;;30.92;;
78555;SDS011;67851;51.354;7.744;2023-04-16T13:36:45;44.17;;;31.42;;
78555;SDS011;67851;51.354;7.744;2023-04-16T13:39:10;45.35;;;32.92;;
78555;SDS011;67851;51.354;7.744;2023-04-16T13:41:37;44.00;;;30.30;;
78555;SDS011;67851;51.354;7.744;2023-04-16T13:44:06;43.90;;;32.05;;
78555;SDS011;67851;51.354;7.744;2023-04-16T13:46:32;47.72;;;32.28;;
78555;SDS011;67851;51.354;7.744;2023-04-16T13:48:58;44.40;;;31.67;;
78555;SDS011;67851;51.354;7.744;2023-04-16T13:51:23;47.22;;;32.25;;
78555;SDS011;67851;51.354;7.744;2023-04-16T13:53:49;47.15;;;32.53;;
78555;SDS011;67851;51.354;7.744;2023-04-16T13:56:14;46.78;;;32.83;;
78555;SDS011;67851;51.354;7.744;2023-04-16T13:58:40;46.83;;;32.00;;
78555;SDS011;67851;51.354;7.744;2023-04-16T14:01:06;46.53;;;32.28;;
78555;SDS011;67851;51.354;7.744;2023-04-16T14:03:32;47.85;;;32.42;;
78555;SDS011;67851;51.354;7.744;2023-04-16T14:06:02;50.55;;;33.95;;
78555;SDS011;67851;51.354;7.744;2023-04-16T14:08:28;49.97;;;34.08;;
78555;SDS011;67851;51.354;7.744;2023-04-16T14:10:54;54.05;;;36.05;;
78555;SDS011;67851;51.354;7.744;2023-04-16T14:13:20;45.40;;;32.42;;
78555;SDS011;67851;51.354;7.744;2023-04-16T14:15:46;56.80;;;37.50;;
78555;SDS011;67851;51.354;7.744;2023-04-16T14:18:12;51.92;;;33.80;;
78555;SDS011;67851;51.354;7.744;2023-04-16T14:20:37;44.22;;;30.63;;
78555;SDS011;67851;51.354;7.744;2023-04-16T14:23:04;44.97;;;33.25;;